createdAt,value
2023-05-25T00:01:36.581Z,100.00
2023-05-25T00:04:03.928Z,100.00
2023-05-25T00:06:31.965Z,100.00
2023-05-25T00:08:58.364Z,100.00
2023-05-25T00:11:26.489Z,100.00
2023-05-25T00:13:53.110Z,100.00
2023-05-25T00:16:19.616Z,100.00
2023-05-25T00:18:48.370Z,100.00
2023-05-25T00:21:15.885Z,100.00
2023-05-25T00:23:42.848Z,100.00
2023-05-25T00:26:09.365Z,100.00
2023-05-25T00:28:36.048Z,100.00
2023-05-25T00:31:02.466Z,100.00
2023-05-25T00:33:28.914Z,100.00
2023-05-25T00:35:56.995Z,100.00
2023-05-25T00:38:23.467Z,100.00
2023-05-25T00:40:55.149Z,100.00
2023-05-25T00:43:21.556Z,100.00
2023-05-25T00:45:48.005Z,100.00
2023-05-25T00:48:15.403Z,100.00
2023-05-25T00:50:43.282Z,100.00
2023-05-25T00:53:11.716Z,100.00
2023-05-25T00:55:45.925Z,100.00
2023-05-25T00:58:13.580Z,100.00
2023-05-25T01:00:42.834Z,100.00
2023-05-25T01:03:17.757Z,100.00
2023-05-25T01:05:47.224Z,100.00
2023-05-25T01:08:16.757Z,100.00
2023-05-25T01:10:45.307Z,100.00
2023-05-25T01:13:13.595Z,100.00
2023-05-25T01:15:40.599Z,100.00
2023-05-25T01:18:09.326Z,100.00
2023-05-25T01:20:35.878Z,100.00
2023-05-25T01:23:12.040Z,100.00
2023-05-25T01:25:42.938Z,100.00
2023-05-25T01:28:23.635Z,100.00
2023-05-25T01:30:50.756Z,100.00
2023-05-25T01:33:18.476Z,100.00
2023-05-25T01:35:47.032Z,100.00
2023-05-25T01:38:14.318Z,100.00
2023-05-25T01:40:40.657Z,100.00
2023-05-25T01:43:07.054Z,100.00
2023-05-25T01:45:34.131Z,100.00
2023-05-25T01:48:22.021Z,100.00
2023-05-25T01:50:57.957Z,100.00
2023-05-25T01:53:31.029Z,100.00
2023-05-25T01:56:03.437Z,100.00
2023-05-25T01:58:38.683Z,100.00
2023-05-25T02:01:06.280Z,100.00
2023-05-25T02:03:32.939Z,100.00
2023-05-25T02:05:59.327Z,100.00
2023-05-25T02:08:25.943Z,100.00
2023-05-25T02:10:52.426Z,100.00
2023-05-25T02:13:18.765Z,100.00
2023-05-25T02:15:45.636Z,100.00
2023-05-25T02:18:13.634Z,100.00
2023-05-25T02:20:40.110Z,100.00
2023-05-25T02:23:06.607Z,100.00
2023-05-25T02:25:32.926Z,100.00
2023-05-25T02:27:59.291Z,100.00
2023-05-25T02:30:25.712Z,100.00
2023-05-25T02:32:52.129Z,100.00
2023-05-25T02:35:18.514Z,100.00
2023-05-25T02:37:44.929Z,100.00
2023-05-25T02:40:12.068Z,100.00
2023-05-25T02:42:38.409Z,100.00
2023-05-25T02:45:06.400Z,100.00
2023-05-25T02:47:32.767Z,100.00
2023-05-25T02:49:59.143Z,100.00
2023-05-25T02:52:25.599Z,100.00
2023-05-25T02:54:51.958Z,100.00
2023-05-25T02:57:18.312Z,100.00
2023-05-25T02:59:44.683Z,100.00
2023-05-25T03:02:11.909Z,100.00
2023-05-25T03:04:39.461Z,100.00
2023-05-25T03:07:05.920Z,100.00
2023-05-25T03:09:32.299Z,100.00
2023-05-25T03:11:58.880Z,100.00
2023-05-25T03:14:25.284Z,100.00
2023-05-25T03:16:53.800Z,100.00
2023-05-25T03:19:20.912Z,100.00
2023-05-25T03:21:47.434Z,100.00
2023-05-25T03:24:13.827Z,100.00
2023-05-25T03:26:40.558Z,100.00
2023-05-25T03:29:07.101Z,100.00
2023-05-25T03:31:33.582Z,100.00
2023-05-25T03:33:59.956Z,100.00
2023-05-25T03:36:30.830Z,100.00
2023-05-25T03:38:57.216Z,100.00
2023-05-25T03:41:23.641Z,100.00
2023-05-25T03:43:50.348Z,100.00
2023-05-25T03:46:16.795Z,100.00
2023-05-25T03:48:43.266Z,100.00
2023-05-25T03:51:09.588Z,100.00
2023-05-25T03:53:36.160Z,100.00
2023-05-25T03:56:02.516Z,100.00
2023-05-25T03:58:29.206Z,100.00
2023-05-25T04:00:56.186Z,100.00
2023-05-25T04:03:23.001Z,100.00
2023-05-25T04:05:49.911Z,100.00
2023-05-25T04:08:19.861Z,100.00
2023-05-25T04:10:46.875Z,100.00
2023-05-25T04:13:13.499Z,100.00
2023-05-25T04:15:40.217Z,100.00
2023-05-25T04:18:06.684Z,100.00
2023-05-25T04:20:34.322Z,100.00
2023-05-25T04:23:00.669Z,100.00
2023-05-25T04:25:29.357Z,100.00
2023-05-25T04:27:56.643Z,100.00
2023-05-25T04:30:23.670Z,100.00
2023-05-25T04:32:50.406Z,100.00
2023-05-25T04:35:16.875Z,100.00
2023-05-25T04:37:43.194Z,100.00
2023-05-25T04:40:13.985Z,100.00
2023-05-25T04:42:41.505Z,100.00
2023-05-25T04:45:11.829Z,100.00
2023-05-25T04:47:41.178Z,100.00
2023-05-25T04:50:09.904Z,100.00
2023-05-25T04:52:36.541Z,100.00
2023-05-25T04:55:03.213Z,100.00
2023-05-25T04:57:31.414Z,100.00
2023-05-25T04:59:58.189Z,100.00
2023-05-25T05:02:25.946Z,100.00
2023-05-25T05:04:53.550Z,100.00
2023-05-25T05:07:23.801Z,100.00
2023-05-25T05:09:50.589Z,100.00
2023-05-25T05:12:16.936Z,100.00
2023-05-25T05:14:43.354Z,100.00
2023-05-25T05:17:09.690Z,100.00
2023-05-25T05:19:36.204Z,100.00
2023-05-25T05:22:02.537Z,100.00
2023-05-25T05:24:28.852Z,100.00
2023-05-25T05:26:58.348Z,100.00
2023-05-25T05:29:26.733Z,100.00
2023-05-25T05:31:54.223Z,100.00
2023-05-25T05:34:21.174Z,100.00
2023-05-25T05:36:57.476Z,100.00
2023-05-25T05:39:24.777Z,100.00
2023-05-25T05:41:51.209Z,100.00
2023-05-25T05:44:18.127Z,100.00
2023-05-25T05:46:44.553Z,100.00
2023-05-25T05:49:10.910Z,100.00
2023-05-25T05:51:37.261Z,100.00
2023-05-25T05:54:04.582Z,100.00
2023-05-25T05:56:31.239Z,100.00
2023-05-25T05:58:57.734Z,100.00
2023-05-25T06:01:25.369Z,100.00
2023-05-25T06:03:54.129Z,100.00
2023-05-25T06:06:21.627Z,100.00
2023-05-25T06:08:48.041Z,100.00
2023-05-25T06:11:14.415Z,100.00
2023-05-25T06:13:45.445Z,100.00
2023-05-25T06:16:12.898Z,100.00
2023-05-25T06:18:39.557Z,100.00
2023-05-25T06:21:06.170Z,100.00
2023-05-25T06:23:32.597Z,100.00
2023-05-25T06:26:06.335Z,100.00
2023-05-25T06:28:33.141Z,100.00
2023-05-25T06:30:59.597Z,100.00
2023-05-25T06:33:26.248Z,100.00
2023-05-25T06:35:56.424Z,100.00
2023-05-25T06:38:23.921Z,100.00
2023-05-25T06:40:50.264Z,100.00
2023-05-25T06:43:16.648Z,100.00
2023-05-25T06:45:43.142Z,100.00
2023-05-25T06:48:09.678Z,100.00
2023-05-25T06:50:36.228Z,100.00
2023-05-25T06:53:02.881Z,100.00
2023-05-25T06:55:29.210Z,100.00
2023-05-25T06:57:56.040Z,100.00
2023-05-25T07:00:22.457Z,100.00
2023-05-25T07:02:49.243Z,100.00
2023-05-25T07:05:15.988Z,100.00
2023-05-25T07:07:42.454Z,100.00
2023-05-25T07:10:09.495Z,100.00
2023-05-25T07:12:35.812Z,100.00
2023-05-25T07:15:02.328Z,100.00
2023-05-25T07:17:28.754Z,100.00
2023-05-25T07:19:56.300Z,100.00
2023-05-25T07:22:23.873Z,100.00
2023-05-25T07:24:50.288Z,100.00
2023-05-25T07:27:16.876Z,100.00
2023-05-25T07:29:44.277Z,100.00
2023-05-25T07:32:11.325Z,100.00
2023-05-25T07:34:37.728Z,100.00
2023-05-25T07:37:04.241Z,100.00
2023-05-25T07:39:30.826Z,100.00
2023-05-25T07:41:57.291Z,100.00
2023-05-25T07:44:23.721Z,100.00
2023-05-25T07:46:50.135Z,100.00
2023-05-25T07:49:16.667Z,100.00
2023-05-25T07:51:45.179Z,100.00
2023-05-25T07:54:11.872Z,100.00
2023-05-25T07:56:39.210Z,100.00
2023-05-25T07:59:06.454Z,100.00
2023-05-25T08:01:33.034Z,100.00
2023-05-25T08:03:59.582Z,100.00
2023-05-25T08:06:26.985Z,100.00
2023-05-25T08:08:53.468Z,100.00
2023-05-25T08:11:24.794Z,100.00
2023-05-25T08:13:51.284Z,100.00
2023-05-25T08:16:18.968Z,100.00
2023-05-25T08:18:46.758Z,100.00
2023-05-25T08:21:13.665Z,100.00
2023-05-25T08:23:42.324Z,100.00
2023-05-25T08:26:28.574Z,100.00
2023-05-25T08:28:56.652Z,100.00
2023-05-25T08:31:23.111Z,100.00
2023-05-25T08:33:49.478Z,100.00
2023-05-25T08:36:16.088Z,100.00
2023-05-25T08:38:42.463Z,100.00
2023-05-25T08:41:09.002Z,100.00
2023-05-25T08:43:35.647Z,100.00
2023-05-25T08:46:07.172Z,100.00
2023-05-25T08:48:41.862Z,100.00
2023-05-25T08:51:11.681Z,100.00
2023-05-25T08:53:40.599Z,100.00
2023-05-25T08:56:30.492Z,100.00
2023-05-25T08:59:06.899Z,100.00
2023-05-25T09:01:39.307Z,100.00
2023-05-25T09:04:06.774Z,100.00
2023-05-25T09:06:36.665Z,100.00
2023-05-25T09:09:04.826Z,100.00
2023-05-25T09:11:39.610Z,100.00
2023-05-25T09:14:08.201Z,100.00
2023-05-25T09:16:37.544Z,100.00
2023-05-25T09:19:04.441Z,100.00
2023-05-25T09:21:31.523Z,100.00
2023-05-25T09:24:05.479Z,100.00
2023-05-25T09:26:32.118Z,100.00
2023-05-25T09:28:58.575Z,100.00
2023-05-25T09:31:25.658Z,100.00
2023-05-25T09:33:55.562Z,100.00
2023-05-25T09:36:23.228Z,100.00
2023-05-25T09:38:53.828Z,100.00
2023-05-25T09:41:21.901Z,100.00
2023-05-25T09:44:01.908Z,100.00
2023-05-25T09:46:39.287Z,100.00
2023-05-25T09:49:08.486Z,100.00
2023-05-25T09:51:36.500Z,100.00
2023-05-25T09:54:04.859Z,100.00
2023-05-25T09:56:35.718Z,100.00
2023-05-25T09:59:02.991Z,100.00
2023-05-25T10:01:29.622Z,100.00
2023-05-25T10:04:04.399Z,100.00
2023-05-25T10:06:37.336Z,100.00
2023-05-25T10:09:06.441Z,100.00
2023-05-25T10:11:36.032Z,100.00
2023-05-25T10:14:06.839Z,100.00
2023-05-25T10:16:34.876Z,100.00
2023-05-25T10:19:07.201Z,100.00
2023-05-25T10:21:36.745Z,100.00
2023-05-25T10:24:17.543Z,100.00
2023-05-25T10:26:51.259Z,100.00
2023-05-25T10:29:19.075Z,100.00
2023-05-25T10:31:46.016Z,100.00
2023-05-25T10:34:12.973Z,100.00
2023-05-25T10:36:40.832Z,100.00
2023-05-25T10:39:09.230Z,100.00
2023-05-25T10:41:35.829Z,100.00
2023-05-25T10:44:02.838Z,100.00
2023-05-25T10:46:29.558Z,100.00
2023-05-25T10:49:02.071Z,100.00
2023-05-25T10:51:41.442Z,100.00
2023-05-25T10:54:07.924Z,100.00
2023-05-25T10:56:34.459Z,100.00
2023-05-25T10:59:02.018Z,100.00
2023-05-25T11:01:31.332Z,100.00
2023-05-25T11:04:18.104Z,100.00
2023-05-25T11:06:44.675Z,100.00
2023-05-25T11:09:31.499Z,100.00
2023-05-25T11:12:01.672Z,100.00
2023-05-25T11:14:30.965Z,100.00
2023-05-25T11:17:14.949Z,100.00
2023-05-25T11:19:51.090Z,100.00
2023-05-25T11:22:21.142Z,100.00
2023-05-25T11:24:49.577Z,100.00
2023-05-25T11:27:21.868Z,100.00
2023-05-25T11:29:51.919Z,100.00
2023-05-25T11:32:18.831Z,100.00
2023-05-25T11:34:46.962Z,100.00
2023-05-25T11:37:17.065Z,100.00
2023-05-25T11:39:49.883Z,100.00
2023-05-25T11:42:17.377Z,100.00
2023-05-25T11:44:44.091Z,100.00
2023-05-25T11:47:14.496Z,100.00
2023-05-25T11:49:44.192Z,100.00
2023-05-25T11:52:10.785Z,100.00
2023-05-25T11:54:40.864Z,100.00
2023-05-25T11:57:24.968Z,100.00
2023-05-25T11:59:53.870Z,100.00
2023-05-25T12:02:21.158Z,98.73
2023-05-25T12:04:56.961Z,100.00
2023-05-25T12:07:24.666Z,100.00
2023-05-25T12:09:51.367Z,100.00
2023-05-25T12:12:19.477Z,100.00
2023-05-25T12:14:51.882Z,100.00
2023-05-25T12:17:20.965Z,100.00
2023-05-25T12:19:47.861Z,98.62
2023-05-25T12:22:14.753Z,98.19
2023-05-25T12:24:41.322Z,96.73
2023-05-25T12:27:17.584Z,95.18
2023-05-25T12:29:48.140Z,100.00
2023-05-25T12:32:14.799Z,100.00
2023-05-25T12:34:41.214Z,100.00
2023-05-25T12:37:21.337Z,99.89
2023-05-25T12:39:48.614Z,89.31
2023-05-25T12:42:16.748Z,95.54
2023-05-25T12:44:46.289Z,86.47
2023-05-25T12:47:20.769Z,82.27
2023-05-25T12:49:51.198Z,88.88
2023-05-25T12:52:37.319Z,94.75
2023-05-25T12:55:25.820Z,96.88
2023-05-25T12:57:53.597Z,91.98
2023-05-25T13:00:24.649Z,99.95
2023-05-25T13:02:53.636Z,97.62
2023-05-25T13:05:27.842Z,97.04
2023-05-25T13:07:55.450Z,92.36
2023-05-25T13:10:22.446Z,100.00
2023-05-25T13:12:51.610Z,100.00
2023-05-25T13:15:22.419Z,89.53
2023-05-25T13:17:50.910Z,94.06
2023-05-25T13:20:19.573Z,95.64
2023-05-25T13:22:47.628Z,93.84
2023-05-25T13:25:15.571Z,93.02
2023-05-25T13:27:47.742Z,100.00
2023-05-25T13:30:15.217Z,94.59
2023-05-25T13:32:47.458Z,88.63
2023-05-25T13:35:34.288Z,93.63
2023-05-25T13:38:00.828Z,92.83
2023-05-25T13:40:27.448Z,97.82
2023-05-25T13:42:55.283Z,86.46
2023-05-25T13:45:21.756Z,91.44
2023-05-25T13:47:49.540Z,92.16
2023-05-25T13:50:16.020Z,94.36
2023-05-25T13:52:42.498Z,99.07
2023-05-25T13:55:08.957Z,100.00
2023-05-25T13:57:35.399Z,98.83
2023-05-25T14:00:02.059Z,90.78
2023-05-25T14:02:29.241Z,97.12
2023-05-25T14:04:57.067Z,88.30
2023-05-25T14:07:24.132Z,88.47
2023-05-25T14:09:50.666Z,88.37
2023-05-25T14:12:17.128Z,81.10
2023-05-25T14:14:43.576Z,88.30
2023-05-25T14:17:10.752Z,79.62
2023-05-25T14:19:37.691Z,81.30
2023-05-25T14:22:13.254Z,80.24
2023-05-25T14:24:40.229Z,85.83
2023-05-25T14:27:09.414Z,76.99
2023-05-25T14:29:36.183Z,76.23
2023-05-25T14:32:02.744Z,79.80
2023-05-25T14:34:29.464Z,82.19
2023-05-25T14:36:56.229Z,87.16
2023-05-25T14:39:22.898Z,92.15
2023-05-25T14:41:49.605Z,89.79
2023-05-25T14:44:16.520Z,83.53
2023-05-25T14:46:43.178Z,86.83
2023-05-25T14:49:10.102Z,86.12
2023-05-25T14:51:36.860Z,85.82
2023-05-25T14:54:05.331Z,90.69
2023-05-25T14:56:31.952Z,84.25
2023-05-25T14:58:58.782Z,84.09
2023-05-25T15:01:25.729Z,78.62
2023-05-25T15:03:52.570Z,80.03
2023-05-25T15:06:19.744Z,75.91
2023-05-25T15:08:46.810Z,74.58
2023-05-25T15:11:13.778Z,77.06
2023-05-25T15:13:41.198Z,76.76
2023-05-25T15:16:11.816Z,70.51
2023-05-25T15:18:39.021Z,72.51
2023-05-25T15:21:11.447Z,74.62
2023-05-25T15:23:38.767Z,76.50
2023-05-25T15:26:07.689Z,78.04
2023-05-25T15:28:34.463Z,74.99
2023-05-25T15:31:03.097Z,82.31
2023-05-25T15:33:44.143Z,75.80
2023-05-25T15:36:15.073Z,81.10
2023-05-25T15:38:43.426Z,81.52
2023-05-25T15:41:11.466Z,78.45
2023-05-25T15:43:37.944Z,73.63
2023-05-25T15:46:07.822Z,77.51
2023-05-25T15:48:34.505Z,69.02
2023-05-25T15:51:01.030Z,69.60
2023-05-25T15:53:27.473Z,71.56
2023-05-25T15:55:53.852Z,79.72
2023-05-25T15:58:20.579Z,72.52
2023-05-25T16:00:47.070Z,64.91
2023-05-25T16:03:13.457Z,68.37
2023-05-25T16:05:39.784Z,72.39
2023-05-25T16:08:06.172Z,71.91
2023-05-25T16:10:32.521Z,76.31
2023-05-25T16:12:58.892Z,72.34
2023-05-25T16:15:25.422Z,70.25
2023-05-25T16:17:51.852Z,64.00
2023-05-25T16:20:18.277Z,67.10
2023-05-25T16:22:44.716Z,66.86
2023-05-25T16:25:11.334Z,68.44
2023-05-25T16:27:37.703Z,66.38
2023-05-25T16:30:07.333Z,63.98
2023-05-25T16:32:41.665Z,65.88
2023-05-25T16:35:11.833Z,66.88
2023-05-25T16:37:45.632Z,64.55
2023-05-25T16:52:42.762Z,67.92
2023-05-25T16:55:09.987Z,62.79
2023-05-25T17:04:34.322Z,60.72
2023-05-25T17:07:04.638Z,60.35
2023-05-25T17:09:32.002Z,64.37
2023-05-25T17:12:01.809Z,63.23
2023-05-25T17:14:28.806Z,64.23
2023-05-25T17:16:58.629Z,66.62
2023-05-25T17:19:29.676Z,66.18
2023-05-25T17:22:00.748Z,70.33
2023-05-25T17:24:38.689Z,71.55
2023-05-25T17:27:11.282Z,66.20
2023-05-25T17:29:37.896Z,56.97
2023-05-25T17:32:22.554Z,55.03
2023-05-25T17:34:49.146Z,57.65
2023-05-25T17:37:15.613Z,66.15
2023-05-25T17:39:45.021Z,77.03
2023-05-25T17:42:19.784Z,81.73
2023-05-25T17:44:56.692Z,89.03
2023-05-25T17:47:41.026Z,100.00
2023-05-25T17:50:11.969Z,100.00
2023-05-25T17:52:38.416Z,100.00
2023-05-25T17:55:06.790Z,100.00
2023-05-25T17:57:33.120Z,100.00
2023-05-25T17:59:59.514Z,100.00
2023-05-25T18:02:27.155Z,100.00
2023-05-25T18:04:53.529Z,100.00
2023-05-25T18:07:21.164Z,100.00
2023-05-25T18:09:48.321Z,100.00
2023-05-25T18:12:14.791Z,100.00
2023-05-25T18:14:41.149Z,100.00
2023-05-25T18:17:07.726Z,100.00
2023-05-25T18:19:34.293Z,100.00
2023-05-25T18:22:00.677Z,100.00
2023-05-25T18:24:27.806Z,100.00
2023-05-25T18:26:54.416Z,100.00
2023-05-25T18:29:21.036Z,100.00
2023-05-25T18:31:48.945Z,100.00
2023-05-25T18:34:16.604Z,100.00
2023-05-25T18:36:43.441Z,100.00
2023-05-25T18:39:10.204Z,100.00
2023-05-25T18:41:36.581Z,100.00
2023-05-25T18:44:03.030Z,100.00
2023-05-25T18:46:29.663Z,100.00
2023-05-25T18:48:56.448Z,100.00
2023-05-25T18:51:25.593Z,100.00
2023-05-25T18:53:52.212Z,100.00
2023-05-25T18:56:18.684Z,100.00
2023-05-25T18:58:45.228Z,100.00
2023-05-25T19:01:11.583Z,100.00
2023-05-25T19:03:38.274Z,100.00
2023-05-25T19:06:05.173Z,100.00
2023-05-25T19:08:31.522Z,100.00
2023-05-25T19:10:57.909Z,100.00
2023-05-25T19:13:24.454Z,100.00
2023-05-25T19:15:50.899Z,100.00
2023-05-25T19:18:17.580Z,100.00
2023-05-25T19:20:44.130Z,100.00
2023-05-25T19:23:10.826Z,100.00
2023-05-25T19:25:37.338Z,100.00
2023-05-25T19:28:03.757Z,100.00
2023-05-25T19:30:31.126Z,100.00
2023-05-25T19:32:57.704Z,100.00
2023-05-25T19:35:24.158Z,100.00
2023-05-25T19:37:50.582Z,100.00
2023-05-25T19:40:17.079Z,100.00
2023-05-25T19:42:43.550Z,100.00
2023-05-25T19:45:10.869Z,100.00
2023-05-25T19:47:37.316Z,100.00
2023-05-25T19:50:04.054Z,100.00
2023-05-25T19:52:30.500Z,100.00
2023-05-25T19:54:56.958Z,100.00
2023-05-25T19:57:23.380Z,100.00
2023-05-25T19:59:52.909Z,100.00
2023-05-25T20:02:20.460Z,100.00
2023-05-25T20:04:47.154Z,100.00
2023-05-25T20:07:13.744Z,100.00
2023-05-25T20:09:40.333Z,100.00
2023-05-25T20:12:07.161Z,100.00
2023-05-25T20:14:33.668Z,100.00
2023-05-25T20:17:00.199Z,100.00
2023-05-25T20:19:26.751Z,100.00
2023-05-25T20:21:53.339Z,100.00
2023-05-25T20:24:21.900Z,100.00
2023-05-25T20:26:48.385Z,100.00
2023-05-25T20:29:14.780Z,100.00
2023-05-25T20:31:41.228Z,100.00
2023-05-25T20:34:07.754Z,100.00
2023-05-25T20:36:34.516Z,100.00
2023-05-25T20:39:04.382Z,100.00
2023-05-25T20:41:40.840Z,100.00
2023-05-25T20:44:08.075Z,100.00
2023-05-25T20:46:34.722Z,100.00
2023-05-25T20:49:01.277Z,100.00
2023-05-25T20:51:27.610Z,100.00
2023-05-25T20:53:54.040Z,100.00
2023-05-25T20:56:20.584Z,100.00
2023-05-25T20:58:47.022Z,100.00
2023-05-25T21:01:13.546Z,100.00
2023-05-25T21:03:40.106Z,100.00
2023-05-25T21:06:06.725Z,100.00
2023-05-25T21:08:33.692Z,100.00
2023-05-25T21:11:00.098Z,100.00
2023-05-25T21:13:26.526Z,100.00
2023-05-25T21:15:53.245Z,100.00
2023-05-25T21:18:19.691Z,100.00
2023-05-25T21:20:46.052Z,100.00
2023-05-25T21:23:12.515Z,100.00
2023-05-25T21:25:38.882Z,100.00
2023-05-25T21:28:06.737Z,100.00
2023-05-25T21:30:33.077Z,100.00
2023-05-25T21:32:59.441Z,100.00
2023-05-25T21:35:25.818Z,100.00
2023-05-25T21:37:52.253Z,100.00
2023-05-25T21:40:18.627Z,100.00
2023-05-25T21:42:54.329Z,100.00
2023-05-25T21:45:21.163Z,100.00
2023-05-25T21:47:47.804Z,100.00
2023-05-25T21:50:14.406Z,100.00
2023-05-25T21:52:41.531Z,100.00
2023-05-25T21:55:08.430Z,100.00
2023-05-25T21:57:34.822Z,100.00
2023-05-25T22:00:01.498Z,100.00
2023-05-25T22:02:28.017Z,100.00
2023-05-25T22:04:54.761Z,100.00
2023-05-25T22:07:21.172Z,100.00
2023-05-25T22:09:48.085Z,100.00
2023-05-25T22:12:14.914Z,100.00
2023-05-25T22:14:43.074Z,100.00
2023-05-25T22:17:10.635Z,100.00
2023-05-25T22:19:38.478Z,100.00
2023-05-25T22:22:05.340Z,100.00
2023-05-25T22:24:31.966Z,100.00
2023-05-25T22:26:58.493Z,100.00
2023-05-25T22:29:24.816Z,100.00
2023-05-25T22:31:51.386Z,100.00
2023-05-25T22:34:17.719Z,100.00
2023-05-25T22:36:44.234Z,100.00
2023-05-25T22:39:10.697Z,100.00
2023-05-25T22:41:37.027Z,100.00
2023-05-25T22:44:03.513Z,100.00
2023-05-25T22:46:30.094Z,100.00
2023-05-25T22:48:56.541Z,100.00
2023-05-25T22:51:23.505Z,100.00
2023-05-25T22:53:49.933Z,100.00
2023-05-25T22:56:16.340Z,100.00
2023-05-25T22:58:42.695Z,100.00
2023-05-25T23:01:09.156Z,100.00
2023-05-25T23:03:36.079Z,100.00
2023-05-25T23:06:02.521Z,100.00
2023-05-25T23:08:28.913Z,100.00
2023-05-25T23:10:55.274Z,100.00
2023-05-25T23:13:24.140Z,100.00
2023-05-25T23:15:50.793Z,100.00
2023-05-25T23:18:17.258Z,100.00
2023-05-25T23:20:44.025Z,100.00
2023-05-25T23:23:10.586Z,100.00
2023-05-25T23:25:36.925Z,100.00
2023-05-25T23:28:03.411Z,100.00
2023-05-25T23:30:29.760Z,100.00
2023-05-25T23:32:56.376Z,100.00
2023-05-25T23:35:23.128Z,100.00
2023-05-25T23:37:51.761Z,100.00
2023-05-25T23:40:18.356Z,100.00
2023-05-25T23:42:45.151Z,100.00
2023-05-25T23:45:13.371Z,100.00
2023-05-25T23:47:40.310Z,100.00
2023-05-25T23:50:07.215Z,100.00
2023-05-25T23:52:33.596Z,100.00
2023-05-25T23:55:00.045Z,100.00
2023-05-25T23:57:26.418Z,100.00
2023-05-25T23:59:52.991Z,100.00
